Custom Search

Airport METAR Reports

 

YMAV - Avalon Airport, Australia
Distance from station: 0 0km
Updated: 22/05/2018 17:30
Overcast
Overcast
 Wind from W
Wind: W 22 km/h
Temperature: 15°C
Dew Point: 13°C
Humidity: 88%
Barometer: 1024 hPa
Clouds: Overcast
Visibility: 10 km
Cloud details: Overcast 1524 m
2018/05/22 07:30 YMAV 220730Z AUTO 26012KT 9999 // OVC050 15/13 Q1024 RF00.0/000.0
YMML - Melbourne Intl A, Australia
Distance from station: NE 50km
Updated: 22/05/2018 17:30
Mostly cloudy
Mostly cloudy
 Wind from SW
Wind: SW 19 km/h
Temperature: 14°C
Dew Point: 12°C
Humidity: 88%
Barometer: 1025 hPa
Clouds: Mostly cloudy
Visibility: 10 km
Cloud details: Few Clouds 549 m
Mostly cloudy 1829 m
2018/05/22 07:30 YMML 220730Z 23010KT 9999 FEW018 BKN060 14/12 Q1025 FM0730 MOD TURB BLW 5000FT TILL 0800
YMEN - Melbourne/Essend, Australia
Distance from station: NE 51km
Updated: 22/05/2018 17:00
Partly cloudy
Partly cloudy
 Wind from WSW
Wind: WSW 24 km/h
Temperature: 16°C
Dew Point: 14°C
Humidity: 88%
Barometer: 1024 hPa
Clouds: Partly cloudy
Visibility: 10 km
Cloud details: Partly cloudy 640 m
Partly cloudy 914 m
Partly cloudy 1128 m
2018/05/22 07:00 YMEN 220700Z AUTO 25013KT 9999 // SCT021 SCT030 SCT037 16/14 Q1024
 
YWGT - Wangaratta Arp, Australia
Distance from station: NE 241km
Updated: 22/05/2018 17:00
Overcast
Overcast
 Wind from WSW
Wind: WSW 17 km/h
Temperature: 15°C
Dew Point: 10°C
Humidity: 72%
Barometer: 1023 hPa
Clouds: Overcast
Visibility: 10 km
Cloud details: Overcast 1920 m
2018/05/22 07:00 YWGT 220700Z AUTO 25009KT 9999 // OVC063 15/10 Q1023
YMAY - Albury Airport, Australia
Distance from station: NE 308km
Updated: 22/05/2018 17:00
Mostly cloudy
Mostly cloudy
 Wind from WSW
Wind: WSW 19 km/h
Temperature: 16°C
Dew Point: 10°C
Humidity: 68%
Barometer: 1023 hPa
Clouds: Mostly cloudy
Visibility: 10 km
Cloud details: Mostly cloudy 1067 m
Mostly cloudy 1981 m
2018/05/22 07:00 YMAY 220700Z AUTO 25010KT 9999 // BKN035 BKN065 16/10 Q1023
YMTG - Mount Gambier, Australia
Distance from station: W 326km
Updated: 22/05/2018 17:00
Overcast
Overcast
 Wind from WSW
Wind: WSW 13 km/h
Temperature: 13°C
Dew Point: 12°C
Humidity: 94%
Barometer: 1027 hPa
Clouds: Overcast
Visibility: 10 km
Cloud details: Partly cloudy 213 m
Overcast 823 m
2018/05/22 07:00 YMTG 220700Z AUTO 24007KT 9999 // SCT007 OVC027 13/12 Q1027
 
YNAR - Narrandera, Australia
Distance from station: NNE 413km
Updated: 22/05/2018 17:00

 Wind from WSW
Wind: WSW 13 km/h
Temperature: 17°C
Dew Point: 9°C
Humidity: 59%
Barometer: 1024 hPa
2018/05/22 07:00 YNAR 220700Z AUTO 25007KT //// // ////// 17/09 Q1024
YSWG - Wagga Wagga(Cv/M, Australia
Distance from station: NE 418km
Updated: 22/05/2018 17:00
Mostly cloudy
Mostly cloudy
 Wind from W
Wind: W 15 km/h
Temperature: 16°C
Dew Point: 9°C
Humidity: 63%
Barometer: 1023 hPa
Clouds: Mostly cloudy
Visibility: 10 km
Cloud details: Partly cloudy 1250 m
Mostly cloudy 2073 m
2018/05/22 07:00 YSWG 220700Z AUTO 27008KT 9999 // SCT041 BKN068 16/09 Q1023
YCOM - Cooma Snowy Mtns, Australia
Distance from station: ENE 441km
Updated: 22/05/2018 17:00
Mostly cloudy
Mostly cloudy
 Wind from WSW
Wind: WSW 24 km/h
Temperature: 12°C
Dew Point: 5°C
Humidity: 63%
Barometer: 1020 hPa
Clouds: Mostly cloudy
Visibility: 10 km
Cloud details: Mostly cloudy 1250 m
Mostly cloudy 1494 m
2018/05/22 07:00 YCOM 220700Z AUTO 24013KT 9999 // BKN041 BKN049 12/05 Q1020
 
YGTH - Griffith Arpt, Australia
Distance from station: NNE 444km
Updated: 22/05/2018 17:00
Partly cloudy
Partly cloudy
 Wind from SW
Wind: SW 19 km/h
Temperature: 18°C
Dew Point: 8°C
Humidity: 52%
Barometer: 1025 hPa
Clouds: Partly cloudy
Visibility: 10 km
Cloud details: Partly cloudy 1311 m
2018/05/22 07:00 YGTH 220700Z AUTO 22010KT 9999 // SCT043 18/08 Q1025
YMLT - Launceston Airpo, Australia
Distance from station: SSE 451km
Updated: 22/05/2018 17:30
Clear
Clear
 Wind from SW
Wind: SW 11 km/h
Temperature: 9°C
Wind Chill: 7°C
Dew Point: -1°C
Humidity: 50%
Barometer: 1017 hPa
Clouds: Clear
Visibility: 10 km
2018/05/22 07:30 YMLT 220730Z AUTO 22006KT 9999 // NCD 09/M01 Q1017 RF00.0/000.0
YMIA - Mildura Arpt, Australia
Distance from station: NNW 474km
Updated: 22/05/2018 17:00
Mostly cloudy
Mostly cloudy
 Wind from SSW
Wind: SSW 13 km/h
Temperature: 17°C
Dew Point: 7°C
Humidity: 52%
Barometer: 1027 hPa
Clouds: Mostly cloudy
Visibility: 10 km
Cloud details: Mostly cloudy 1250 m
2018/05/22 07:00 YMIA 220700Z AUTO 20007KT 9999 // BKN041 17/07 Q1027
 
YMER - Merimbula Arpt, Australia
Distance from station: ENE 494km
Updated: 22/05/2018 17:00
Mostly cloudy
Mostly cloudy
 Wind from SSW
Wind: SSW 17 km/h
Temperature: 19°C
Dew Point: 9°C
Humidity: 52%
Barometer: 1018 hPa
Clouds: Mostly cloudy
Visibility: 10 km
Cloud details: Partly cloudy 1707 m
Mostly cloudy 3048 m
2018/05/22 07:00 YMER 220700Z AUTO 20009KT 9999 // SCT056 BKN100 19/09 Q1018
YSCB - Canberra (civ/Mi, Australia
Distance from station: NE 518km
Updated: 22/05/2018 17:30
Few Clouds
Few Clouds
 Wind from W
Wind: W 22 km/h
Temperature: 14°C
Dew Point: 6°C
Humidity: 59%
Barometer: 1021 hPa
Clouds: Few Clouds
Visibility: 10 km
Cloud details: Few Clouds 1067 m
2018/05/22 07:30 YSCB 220730Z 28012KT 9999 FEW035 14/06 Q1021 NOSIG
YMHB - Hobart/Tasmania, Australia
Distance from station: SSE 590km
Updated: 22/05/2018 17:30
Few Clouds
Few Clouds
 Wind from SW
Wind: SW 17 km/h
Temperature: 11°C
Dew Point: 1°C
Humidity: 50%
Barometer: 1016 hPa
Clouds: Few Clouds
Visibility: 10 km
Cloud details: Few Clouds 1372 m
2018/05/22 07:30 YMHB 220730Z 22009KT 9999 FEW045 11/01 Q1016